Terminal Aerodrome Forecast
Issued by NWS Cleveland, OH

Home | Current Version | Previous Version | Graphics & Text | Print | Product List | Glossary On
Versions: 1 2 3 4 5 6 7 8 9 10 11 12 13 14 15 16 17 18 19 20 21 22 23 24 25 26 27
000
FTUS41 KCLE 290500
TAFCLE
TAF
KCLE 290540Z 2906/3012 34009KT P6SM SCT035 BKN050
     FM291500 28009KT P6SM BKN035
     FM292300 26008KT P6SM VCSH BKN050
     FM300500 22006KT P6SM BKN060=

USA.gov is the U.S. government's official web portal to all federal, state and local government web resources and services.